createdAt,value
2023-03-06T06:13:50.950Z,49.80
2023-03-06T06:14:52.796Z,48.90
2023-03-06T06:15:53.575Z,49.10
2023-03-06T06:16:55.404Z,50.23
2023-03-06T06:17:57.207Z,50.91
2023-03-06T06:18:59.021Z,50.93
2023-03-06T06:19:59.849Z,50.83
2023-03-06T06:21:01.650Z,50.63
2023-03-06T06:22:03.445Z,50.63
2023-03-06T06:23:05.248Z,50.73
2023-03-06T06:24:06.018Z,50.83
2023-03-06T06:25:07.815Z,50.63
2023-03-06T06:26:09.613Z,50.63
2023-03-06T06:27:11.412Z,50.63
2023-03-06T06:28:12.155Z,50.53
2023-03-06T06:29:14.100Z,50.43
2023-03-06T06:30:15.892Z,50.33
2023-03-06T06:31:17.741Z,50.33
2023-03-06T06:32:19.600Z,50.33
2023-03-06T06:33:20.373Z,50.33
2023-03-06T06:34:22.187Z,50.33
2023-03-06T06:35:24.010Z,50.23
2023-03-06T06:36:24.275Z,50.23
2023-03-06T06:37:25.849Z,50.33
2023-03-06T06:38:26.588Z,50.33
2023-03-06T06:39:28.406Z,50.23
2023-03-06T06:40:30.204Z,50.23
2023-03-06T06:42:02.294Z,50.13
2023-03-06T06:42:38.882Z,50.13
2023-03-06T06:43:34.154Z,50.13
2023-03-06T06:44:36.004Z,50.13
2023-03-06T06:45:36.749Z,50.13
2023-03-06T06:47:38.678Z,50.13
2023-03-06T06:48:40.371Z,50.13
2023-03-06T06:49:42.273Z,50.02
2023-03-06T06:50:43.046Z,50.02
2023-03-06T06:51:44.850Z,50.02
2023-03-06T06:52:46.683Z,50.02
2023-03-06T06:53:48.493Z,50.02
2023-03-06T06:54:49.244Z,49.93
2023-03-06T06:55:51.042Z,49.93
2023-03-06T06:56:52.839Z,49.93
2023-03-06T06:57:53.583Z,49.93
2023-03-06T06:59:01.336Z,49.93
2023-03-06T06:59:57.566Z,49.93
2023-03-06T07:00:59.364Z,49.93
2023-03-06T07:02:01.170Z,49.93
2023-03-06T07:03:02.975Z,49.82
2023-03-06T07:04:03.746Z,49.93
2023-03-06T07:05:05.785Z,49.93
2023-03-06T07:06:05.548Z,49.82
2023-03-06T07:07:07.348Z,49.82
2023-03-06T07:08:09.145Z,49.82
2023-03-06T07:09:10.953Z,49.73
2023-03-06T07:10:12.769Z,49.73
2023-03-06T07:11:13.913Z,49.82
2023-03-06T07:12:14.650Z,49.82
2023-03-06T07:13:16.446Z,49.82
2023-03-06T07:14:17.209Z,49.73
2023-03-06T07:15:19.118Z,49.73
2023-03-06T07:16:20.999Z,49.62
2023-03-06T07:17:22.869Z,49.62
2023-03-06T07:18:24.943Z,49.62
2023-03-06T07:19:26.742Z,49.73
2023-03-06T07:20:28.558Z,49.73
2023-03-06T07:21:29.319Z,49.62
2023-03-06T07:22:41.439Z,49.73
2023-03-06T07:23:32.460Z,49.73
2023-03-06T07:24:33.202Z,49.62
2023-03-06T07:25:35.015Z,49.62
2023-03-06T07:26:36.815Z,49.73
2023-03-06T07:27:38.652Z,49.62
2023-03-06T07:28:51.628Z,49.62
2023-03-06T07:29:40.681Z,49.62
2023-03-06T07:30:42.523Z,49.62
2023-03-06T07:31:43.290Z,49.62
2023-03-06T07:32:45.162Z,49.73
2023-03-06T07:33:46.967Z,49.62
2023-03-06T07:34:48.760Z,49.62
2023-03-06T07:35:50.677Z,49.52
2023-03-06T07:36:52.604Z,49.62
2023-03-06T07:37:53.358Z,49.62
2023-03-06T07:38:55.147Z,49.62
2023-03-06T07:39:56.945Z,49.62
2023-03-06T07:40:58.760Z,49.62
2023-03-06T07:41:59.561Z,49.52
2023-03-06T07:43:16.850Z,49.62
2023-03-06T07:44:02.792Z,49.52
2023-03-06T07:45:03.532Z,49.52
2023-03-06T07:46:05.438Z,49.52
2023-03-06T07:47:07.260Z,49.52
2023-03-06T07:48:09.059Z,49.52
2023-03-06T07:49:10.864Z,49.52
2023-03-06T07:50:11.614Z,49.52
2023-03-06T07:51:13.439Z,49.52
2023-03-06T07:52:15.235Z,49.62
2023-03-06T07:53:17.035Z,49.52
2023-03-06T07:54:18.842Z,49.52
2023-03-06T07:55:19.604Z,49.62
2023-03-06T07:56:21.423Z,49.52
2023-03-06T07:57:23.213Z,49.52
2023-03-06T07:58:25.010Z,49.52
2023-03-06T07:59:26.819Z,49.62
2023-03-06T08:00:27.564Z,49.52
2023-03-06T08:01:29.413Z,49.52
2023-03-06T08:02:31.219Z,49.52
2023-03-06T08:03:33.065Z,49.52
2023-03-06T08:04:34.920Z,49.42
2023-03-06T08:05:35.678Z,49.42
2023-03-06T08:06:37.488Z,49.42
2023-03-06T08:07:39.294Z,49.42
2023-03-06T08:08:41.101Z,49.42
2023-03-06T08:09:42.910Z,49.42
2023-03-06T08:10:44.746Z,49.42
2023-03-06T08:11:45.511Z,49.42
2023-03-06T08:12:47.297Z,49.42
2023-03-06T08:13:49.127Z,49.42
2023-03-06T08:14:50.926Z,49.32
2023-03-06T08:15:51.674Z,49.32
2023-03-06T08:16:53.534Z,49.42
2023-03-06T08:17:55.333Z,49.42
2023-03-06T08:18:57.142Z,49.42
2023-03-06T08:19:58.945Z,49.52
2023-03-06T08:20:59.685Z,49.42
2023-03-06T08:22:01.502Z,49.42
2023-03-06T08:23:03.296Z,49.42
2023-03-06T08:24:06.703Z,49.42
2023-03-06T08:25:07.261Z,49.42
2023-03-06T08:26:09.103Z,49.32
2023-03-06T08:27:09.881Z,49.42
2023-03-06T08:28:11.683Z,49.42
2023-03-06T08:29:13.485Z,49.32
2023-03-06T08:30:15.312Z,49.42
2023-03-06T08:31:17.199Z,49.42
2023-03-06T08:32:18.070Z,49.42
2023-03-06T08:33:18.827Z,49.42
2023-03-06T08:34:19.174Z,49.32
2023-03-06T08:35:21.057Z,49.42
2023-03-06T08:36:22.945Z,49.42
2023-03-06T08:37:23.719Z,49.42
2023-03-06T08:38:25.501Z,49.32
2023-03-06T08:39:27.307Z,49.32
2023-03-06T08:40:29.321Z,49.42
2023-03-06T08:41:31.125Z,49.42
2023-03-06T08:42:32.946Z,49.32
2023-03-06T08:43:33.511Z,49.32
2023-03-06T08:44:35.030Z,49.32
2023-03-06T08:45:36.853Z,49.32
2023-03-06T08:46:37.627Z,49.42
2023-03-06T08:47:39.476Z,49.42
2023-03-06T08:48:41.271Z,49.42
2023-03-06T08:49:43.129Z,49.42
2023-03-06T08:50:44.941Z,49.42
2023-03-06T08:51:45.672Z,49.42
2023-03-06T08:52:47.501Z,49.42
2023-03-06T08:53:49.306Z,49.42
2023-03-06T08:54:51.099Z,49.42
2023-03-06T08:55:51.841Z,49.42
2023-03-06T08:56:53.650Z,49.42
2023-03-06T08:57:55.492Z,49.42
2023-03-06T08:58:57.309Z,49.42
2023-03-06T08:59:59.115Z,49.42
2023-03-06T09:00:59.970Z,49.42
2023-03-06T09:02:00.875Z,49.42
2023-03-06T09:03:01.147Z,49.32
2023-03-06T09:04:03.048Z,49.32
2023-03-06T09:05:04.859Z,49.22
2023-03-06T09:06:05.594Z,49.22
2023-03-06T09:07:07.383Z,49.22
2023-03-06T09:08:09.199Z,49.22
2023-03-06T09:09:11.004Z,49.32
2023-03-06T09:10:11.741Z,49.22
2023-03-06T09:11:13.532Z,49.22
2023-03-06T09:12:15.332Z,49.12
2023-03-06T09:13:17.166Z,49.12
2023-03-06T09:14:17.924Z,49.12
2023-03-06T09:15:19.718Z,49.22
2023-03-06T09:16:21.540Z,49.22
2023-03-06T09:17:23.511Z,49.12
2023-03-06T09:18:25.434Z,49.12
2023-03-06T09:19:27.514Z,49.12
2023-03-06T09:20:29.296Z,49.12
2023-03-06T09:21:30.040Z,49.02
2023-03-06T09:22:31.668Z,49.02
2023-03-06T09:23:33.491Z,49.02
2023-03-06T09:24:35.281Z,49.12
2023-03-06T09:25:36.037Z,49.02
2023-03-06T09:26:46.273Z,49.02
2023-03-06T09:27:39.407Z,49.02
2023-03-06T09:28:41.225Z,49.02
2023-03-06T09:29:41.969Z,48.99
2023-03-06T09:30:43.822Z,48.99
2023-03-06T09:31:45.653Z,48.99
2023-03-06T09:32:47.456Z,48.99
2023-03-06T09:33:49.347Z,49.02
2023-03-06T09:34:50.097Z,49.02
2023-03-06T09:35:51.969Z,48.99
2023-03-06T09:36:57.197Z,49.02
2023-03-06T09:37:55.193Z,49.02
2023-03-06T09:38:55.959Z,49.12
2023-03-06T09:39:57.822Z,49.02
2023-03-06T09:40:59.637Z,48.99
2023-03-06T09:42:01.440Z,48.99
2023-03-06T09:43:03.244Z,48.90
2023-03-06T09:44:04.019Z,48.79
2023-03-06T09:45:05.879Z,48.79
2023-03-06T09:46:07.731Z,48.90
2023-03-06T09:47:09.584Z,48.79
2023-03-06T09:48:11.381Z,48.79
2023-03-06T09:49:13.253Z,48.79
2023-03-06T09:50:14.025Z,48.69
2023-03-06T09:51:15.825Z,48.69
2023-03-06T09:52:17.292Z,48.79
2023-03-06T09:53:19.089Z,48.79
2023-03-06T09:54:20.900Z,48.79
2023-03-06T09:55:21.656Z,48.69
2023-03-06T09:56:23.448Z,48.69
2023-03-06T09:57:25.241Z,48.69
2023-03-06T09:58:27.048Z,48.69
2023-03-06T09:59:28.861Z,48.69
2023-03-06T10:00:29.634Z,48.57
2023-03-06T10:01:31.469Z,48.59
2023-03-06T10:02:33.460Z,48.59
2023-03-06T10:03:35.278Z,48.59
2023-03-06T10:04:37.289Z,48.57
2023-03-06T10:05:39.112Z,48.47
2023-03-06T10:06:40.916Z,48.47
2023-03-06T10:07:41.653Z,48.47
2023-03-06T10:08:43.448Z,48.59
2023-03-06T10:09:45.266Z,48.57
2023-03-06T10:10:47.278Z,48.47
2023-03-06T10:11:49.084Z,48.47
2023-03-06T10:12:51.084Z,48.47
2023-03-06T10:13:51.513Z,48.37
2023-03-06T10:14:53.016Z,48.37
2023-03-06T10:15:54.909Z,48.27
2023-03-06T10:16:55.668Z,48.27
2023-03-06T10:17:57.465Z,48.14
2023-03-06T10:18:59.270Z,47.94
2023-03-06T10:20:01.165Z,47.85
2023-03-06T10:21:18.496Z,47.74
2023-03-06T10:22:03.060Z,47.62
2023-03-06T10:23:05.494Z,47.62
2023-03-06T10:24:05.258Z,47.64
2023-03-06T10:25:06.892Z,47.74
2023-03-06T10:26:08.712Z,47.74
2023-03-06T10:27:09.559Z,47.74
2023-03-06T10:28:10.329Z,47.74
2023-03-06T10:29:10.678Z,47.64
2023-03-06T10:30:12.523Z,47.64
2023-03-06T10:31:14.393Z,47.52
2023-03-06T10:32:16.245Z,47.52
2023-03-06T10:33:17.005Z,47.62
2023-03-06T10:34:18.789Z,47.62
2023-03-06T10:35:20.668Z,47.62
2023-03-06T10:36:22.526Z,47.52
2023-03-06T10:37:24.338Z,47.62
2023-03-06T10:38:25.091Z,47.62
2023-03-06T10:39:26.900Z,47.42
2023-03-06T10:40:28.745Z,47.22
2023-03-06T10:41:30.564Z,47.22
2023-03-06T10:42:32.372Z,47.19
2023-03-06T10:43:36.195Z,47.22
2023-03-06T10:44:34.028Z,47.22
2023-03-06T10:45:48.407Z,47.19
2023-03-06T10:46:34.910Z,47.00
2023-03-06T10:47:35.709Z,47.00
2023-03-06T10:48:36.009Z,46.77
2023-03-06T10:49:37.925Z,46.57
2023-03-06T10:50:39.789Z,46.57
2023-03-06T10:51:40.524Z,46.57
2023-03-06T10:52:42.326Z,46.57
2023-03-06T10:53:44.124Z,46.57
2023-03-06T10:54:45.923Z,46.69
2023-03-06T10:55:46.103Z,46.89
2023-03-06T10:56:47.848Z,47.00
2023-03-06T10:57:49.658Z,47.22
2023-03-06T10:58:50.400Z,47.22
2023-03-06T10:59:52.191Z,47.22
2023-03-06T11:00:54.010Z,47.22
2023-03-06T11:01:55.940Z,47.22
2023-03-06T11:02:57.774Z,47.22
2023-03-06T11:03:58.514Z,47.22
2023-03-06T11:05:00.331Z,47.12
2023-03-06T11:06:02.166Z,47.09
2023-03-06T11:07:03.961Z,47.12
2023-03-06T11:08:05.764Z,47.09
2023-03-06T11:09:07.560Z,47.09
2023-03-06T11:10:09.363Z,47.00
2023-03-06T11:11:10.116Z,47.00
2023-03-06T11:12:11.921Z,46.89
2023-03-06T11:13:13.720Z,46.89
2023-03-06T11:14:15.524Z,47.00
2023-03-06T11:15:17.328Z,46.89
2023-03-06T11:16:18.170Z,46.89
2023-03-06T11:17:18.949Z,46.80
2023-03-06T11:18:19.277Z,46.80
2023-03-06T11:19:21.119Z,46.80
2023-03-06T11:20:22.973Z,46.80
2023-03-06T11:21:24.878Z,46.80
2023-03-06T11:22:25.623Z,46.69
2023-03-06T11:23:27.421Z,46.80
2023-03-06T11:24:29.222Z,46.80
2023-03-06T11:25:31.024Z,46.89
2023-03-06T11:26:32.836Z,47.00
2023-03-06T11:27:34.806Z,47.00
2023-03-06T11:28:36.798Z,47.00
2023-03-06T11:29:39.099Z,47.00
2023-03-06T11:30:38.847Z,47.00
2023-03-06T11:31:40.681Z,47.00
2023-03-06T11:32:42.558Z,47.00
2023-03-06T11:33:44.386Z,46.89
2023-03-06T11:34:47.671Z,46.80
2023-03-06T11:35:48.310Z,46.77
2023-03-06T11:36:50.248Z,46.69
2023-03-06T11:37:50.979Z,46.69
2023-03-06T11:38:52.813Z,46.67
2023-03-06T11:39:54.047Z,46.67
2023-03-06T11:40:55.859Z,46.35
2023-03-06T11:41:56.620Z,46.35
2023-03-06T11:42:58.406Z,46.15
2023-03-06T11:44:00.208Z,46.04
2023-03-06T11:45:03.151Z,46.04
2023-03-06T11:46:02.171Z,46.04
2023-03-06T11:47:03.991Z,45.95
2023-03-06T11:48:05.782Z,45.83
2023-03-06T11:49:07.582Z,45.95
2023-03-06T11:50:09.375Z,46.15
2023-03-06T11:51:10.115Z,46.25
2023-03-06T11:52:11.973Z,46.37
2023-03-06T11:53:13.760Z,46.57
2023-03-06T11:54:15.562Z,46.57
2023-03-06T11:55:17.367Z,46.57
2023-03-06T11:56:19.169Z,46.57
2023-03-06T11:57:19.921Z,46.47
2023-03-06T11:58:21.726Z,46.47
2023-03-06T11:59:23.526Z,46.35
2023-03-06T12:00:25.325Z,46.15
2023-03-06T12:01:27.140Z,46.04
2023-03-06T12:02:27.997Z,45.95
2023-03-06T12:03:29.828Z,46.04
2023-03-06T12:04:31.648Z,46.15
2023-03-06T12:05:33.530Z,46.04
2023-03-06T12:06:35.350Z,45.95
2023-03-06T12:07:37.203Z,46.04
2023-03-06T12:08:39.014Z,46.04
2023-03-06T12:09:39.765Z,45.92
2023-03-06T12:10:41.569Z,45.92
2023-03-06T12:11:43.371Z,45.83
2023-03-06T12:12:45.206Z,45.83
2023-03-06T12:13:47.015Z,45.83
2023-03-06T12:14:47.758Z,45.72
2023-03-06T12:15:49.546Z,45.72
2023-03-06T12:16:51.380Z,46.04
2023-03-06T12:17:53.188Z,46.15
2023-03-06T12:18:55.006Z,46.25
2023-03-06T12:19:56.808Z,46.25
2023-03-06T12:20:57.553Z,46.25
2023-03-06T12:21:59.357Z,46.15
2023-03-06T12:23:14.415Z,46.04
2023-03-06T12:24:02.835Z,45.83
2023-03-06T12:25:04.631Z,45.72
2023-03-06T12:26:06.430Z,45.83
2023-03-06T12:27:07.175Z,45.84
2023-03-06T12:28:08.155Z,45.95
2023-03-06T12:29:08.481Z,46.15
2023-03-06T12:30:10.283Z,46.37
2023-03-06T12:31:12.085Z,46.47
2023-03-06T12:32:14.028Z,46.67
2023-03-06T12:33:15.927Z,46.80
2023-03-06T12:34:16.679Z,46.89
2023-03-06T12:35:18.505Z,46.89
2023-03-06T12:36:20.298Z,47.00
2023-03-06T12:37:22.114Z,47.09
2023-03-06T12:38:23.944Z,47.09
2023-03-06T12:39:25.759Z,47.12
2023-03-06T12:40:26.497Z,47.22
2023-03-06T12:41:27.412Z,47.22
2023-03-06T12:42:27.734Z,47.32
2023-03-06T12:43:29.580Z,47.32
2023-03-06T12:44:31.373Z,47.32
2023-03-06T12:45:32.111Z,47.42
2023-03-06T12:46:33.939Z,47.42
2023-03-06T12:47:35.726Z,47.42
2023-03-06T12:48:37.542Z,47.52
2023-03-06T12:49:39.339Z,47.52
2023-03-06T12:50:40.099Z,47.52
2023-03-06T12:51:41.899Z,47.52
2023-03-06T12:52:43.699Z,47.64
2023-03-06T12:53:45.552Z,47.64
2023-03-06T12:54:47.331Z,47.74
2023-03-06T12:55:48.069Z,47.74
2023-03-06T12:56:49.593Z,47.85
2023-03-06T12:57:51.423Z,47.85
2023-03-06T12:58:52.179Z,47.85
2023-03-06T12:59:53.983Z,47.85
2023-03-06T13:01:03.605Z,47.94
2023-03-06T13:01:57.365Z,47.94
2023-03-06T13:02:58.113Z,47.94
2023-03-06T13:03:59.931Z,47.94
2023-03-06T13:05:01.726Z,48.05
2023-03-06T13:06:03.534Z,47.94
2023-03-06T13:07:05.324Z,47.94
2023-03-06T13:08:06.085Z,47.94
2023-03-06T13:09:07.968Z,47.94
2023-03-06T13:10:09.775Z,47.94
2023-03-06T13:11:11.577Z,47.94
2023-03-06T13:12:13.431Z,47.94
2023-03-06T13:13:14.197Z,47.94
2023-03-06T13:14:16.006Z,47.94
2023-03-06T13:15:17.795Z,47.85
2023-03-06T13:16:19.664Z,47.94
2023-03-06T13:17:21.522Z,47.85
2023-03-06T13:18:23.389Z,47.85
2023-03-06T13:19:24.164Z,47.85
2023-03-06T13:20:25.943Z,47.85
2023-03-06T13:21:27.745Z,47.74
2023-03-06T13:22:29.557Z,47.74
2023-03-06T13:23:31.342Z,47.64
2023-03-06T13:24:32.141Z,47.62
2023-03-06T13:25:33.954Z,47.62
2023-03-06T13:26:35.773Z,47.52
2023-03-06T13:27:37.576Z,47.52
2023-03-06T13:28:39.376Z,47.42
2023-03-06T13:29:41.207Z,47.32
2023-03-06T13:30:42.004Z,47.19
2023-03-06T13:31:43.855Z,47.09
2023-03-06T13:32:45.746Z,47.00
2023-03-06T13:33:47.534Z,46.80
2023-03-06T13:34:49.355Z,46.67
2023-03-06T13:35:51.194Z,46.57
2023-03-06T13:36:51.941Z,46.47
2023-03-06T13:37:53.748Z,46.47
2023-03-06T13:38:55.569Z,46.37
2023-03-06T13:39:57.414Z,46.37
2023-03-06T13:40:59.205Z,46.25
2023-03-06T13:41:59.958Z,46.25
2023-03-06T13:43:01.766Z,46.15
2023-03-06T13:44:03.562Z,46.04
2023-03-06T13:45:05.377Z,46.04
2023-03-06T13:46:07.188Z,46.04
2023-03-06T13:47:09.021Z,46.04
2023-03-06T13:48:41.243Z,46.15
2023-03-06T13:49:11.400Z,46.04
2023-03-06T13:50:13.212Z,46.15
2023-03-06T13:51:15.011Z,46.15
2023-03-06T13:52:15.757Z,46.25
2023-03-06T13:53:17.556Z,46.27
2023-03-06T13:54:19.429Z,46.37
2023-03-06T13:55:21.298Z,46.37
2023-03-06T13:56:23.105Z,46.57
2023-03-06T13:57:24.919Z,46.69
2023-03-06T13:58:25.673Z,46.80
2023-03-06T13:59:27.141Z,46.89
2023-03-06T14:00:28.963Z,47.00
2023-03-06T14:01:29.820Z,47.09
2023-03-06T14:02:31.667Z,47.12
2023-03-06T14:03:33.500Z,47.12
2023-03-06T14:04:35.305Z,47.12
2023-03-06T14:05:37.120Z,47.09
2023-03-06T14:06:38.910Z,47.09
2023-03-06T14:07:39.646Z,47.12
2023-03-06T14:08:41.435Z,47.12
2023-03-06T14:09:43.226Z,47.12
2023-03-06T14:10:45.137Z,47.12
2023-03-06T14:11:46.941Z,47.09
2023-03-06T14:12:48.735Z,47.00
2023-03-06T14:13:49.483Z,46.89
2023-03-06T14:14:51.287Z,46.80
2023-03-06T14:15:53.209Z,46.25
2023-03-06T14:16:55.096Z,45.72
2023-03-06T14:17:56.891Z,45.53
2023-03-06T14:18:58.690Z,45.08
2023-03-06T14:19:59.499Z,44.34
2023-03-06T14:21:01.346Z,43.49
2023-03-06T14:22:03.153Z,42.87
2023-03-06T14:23:04.940Z,42.68
2023-03-06T14:24:06.754Z,42.55
2023-03-06T14:25:08.556Z,42.46
2023-03-06T14:26:09.367Z,42.35
2023-03-06T14:27:10.113Z,42.25
2023-03-06T14:28:14.301Z,42.47
2023-03-06T14:29:11.984Z,42.46
2023-03-06T14:30:13.780Z,42.46
2023-03-06T14:31:14.600Z,42.47
2023-03-06T14:32:15.442Z,42.57
2023-03-06T14:33:15.662Z,42.35
2023-03-06T14:34:17.446Z,42.79
2023-03-06T14:35:19.267Z,43.32
2023-03-06T14:36:21.124Z,43.63
2023-03-06T14:37:22.931Z,43.96
2023-03-06T14:38:23.665Z,44.38
2023-03-06T14:39:25.449Z,44.68
2023-03-06T14:40:27.249Z,44.90
2023-03-06T14:41:29.097Z,45.10
2023-03-06T14:42:30.886Z,45.32
2023-03-06T14:43:32.684Z,45.53
2023-03-06T14:44:34.482Z,45.53
2023-03-06T14:45:35.163Z,45.75
2023-03-06T14:46:36.791Z,45.72
2023-03-06T14:47:36.695Z,45.53
2023-03-06T14:48:38.177Z,45.40
2023-03-06T14:49:39.980Z,45.30
2023-03-06T14:50:42.049Z,45.42
2023-03-06T14:51:41.828Z,45.42
2023-03-06T14:52:43.829Z,45.42
2023-03-06T14:53:45.717Z,45.53
2023-03-06T14:54:47.532Z,45.53
2023-03-06T14:55:49.436Z,45.42
2023-03-06T14:56:50.237Z,45.30
2023-03-06T14:57:50.986Z,45.20
2023-03-06T14:58:51.352Z,45.10
2023-03-06T14:59:53.167Z,45.20
2023-03-06T15:00:55.078Z,45.32
2023-03-06T15:01:56.982Z,45.42
2023-03-06T15:02:58.843Z,45.53
2023-03-06T15:03:59.610Z,45.62
2023-03-06T15:05:01.427Z,45.72
2023-03-06T15:06:03.236Z,45.72
2023-03-06T15:07:05.094Z,45.62
2023-03-06T15:08:06.895Z,45.75
2023-03-06T15:09:08.692Z,45.84
2023-03-06T15:10:10.538Z,45.84
2023-03-06T15:11:11.293Z,45.75
2023-03-06T15:12:13.147Z,45.53
2023-03-06T15:13:14.962Z,45.53
2023-03-06T15:14:16.764Z,45.62
2023-03-06T15:15:18.559Z,45.75
2023-03-06T15:16:20.471Z,45.84
2023-03-06T15:17:22.323Z,45.95
2023-03-06T15:18:23.047Z,46.04
2023-03-06T15:19:24.832Z,46.04
2023-03-06T15:20:26.634Z,46.17
2023-03-06T15:21:28.419Z,46.17
2023-03-06T15:22:30.272Z,46.17
2023-03-06T15:23:31.025Z,46.37
2023-03-06T15:24:32.825Z,46.37
2023-03-06T15:25:34.692Z,46.49
2023-03-06T15:26:36.494Z,46.59
2023-03-06T15:27:38.362Z,46.59
2023-03-06T15:28:40.168Z,46.69
2023-03-06T15:29:40.907Z,46.80
2023-03-06T15:30:42.703Z,46.69
2023-03-06T15:31:44.581Z,46.69
2023-03-06T15:32:46.424Z,46.69
2023-03-06T15:33:48.460Z,46.69
2023-03-06T15:34:50.252Z,46.59
2023-03-06T15:35:51.012Z,46.59
2023-03-06T15:36:52.852Z,46.69
2023-03-06T15:37:54.659Z,46.69
2023-03-06T15:38:56.503Z,46.69
2023-03-06T15:39:58.301Z,46.69
2023-03-06T15:40:59.085Z,46.69
2023-03-06T15:42:00.890Z,46.72
2023-03-06T15:43:02.735Z,46.80
2023-03-06T15:44:04.526Z,46.81
2023-03-06T15:45:06.326Z,46.81
2023-03-06T15:46:07.138Z,46.92
2023-03-06T15:47:09.482Z,46.92
2023-03-06T15:48:10.347Z,46.92
2023-03-06T15:49:12.145Z,46.81
2023-03-06T15:50:12.883Z,46.81
2023-03-06T15:51:14.746Z,46.80
2023-03-06T15:52:16.561Z,46.69
2023-03-06T15:53:18.382Z,46.69
2023-03-06T15:54:20.181Z,46.69
2023-03-06T15:55:20.924Z,46.80
2023-03-06T15:56:22.716Z,46.69
2023-03-06T15:57:24.517Z,46.81
2023-03-06T15:58:26.357Z,46.81
2023-03-06T15:59:27.098Z,46.81
2023-03-06T16:00:28.883Z,46.81
2023-03-06T16:01:30.784Z,46.81
2023-03-06T16:02:32.620Z,46.92
2023-03-06T16:03:34.446Z,46.92
2023-03-06T16:04:36.309Z,46.92
2023-03-06T16:05:37.100Z,46.92
2023-03-06T16:06:38.902Z,46.92
2023-03-06T16:07:40.726Z,47.02
2023-03-06T16:08:42.537Z,47.02
2023-03-06T16:09:43.295Z,46.92
2023-03-06T16:10:45.100Z,46.92
2023-03-06T16:11:46.918Z,46.92
2023-03-06T16:12:48.717Z,46.92
2023-03-06T16:13:50.548Z,47.02
2023-03-06T16:14:52.384Z,46.92
2023-03-06T16:15:53.214Z,47.02
2023-03-06T16:16:55.126Z,46.92
2023-03-06T16:17:56.979Z,46.92
2023-03-06T16:18:58.807Z,46.92
2023-03-06T16:20:00.627Z,46.92
2023-03-06T16:21:02.429Z,46.92
2023-03-06T16:22:03.197Z,47.02
2023-03-06T16:23:04.991Z,47.02
2023-03-06T16:24:06.819Z,46.92
2023-03-06T16:25:08.600Z,46.92
2023-03-06T16:26:09.345Z,47.02
2023-03-06T16:27:11.139Z,47.02
2023-03-06T16:28:12.927Z,47.12
2023-03-06T16:29:14.786Z,47.12
2023-03-06T16:30:16.603Z,47.12
2023-03-06T16:31:18.401Z,47.12
2023-03-06T16:32:19.257Z,47.24
2023-03-06T16:33:21.076Z,47.24
2023-03-06T16:34:22.892Z,47.12
2023-03-06T16:35:24.745Z,47.14
2023-03-06T16:36:26.621Z,47.14
2023-03-06T16:37:28.451Z,47.24
2023-03-06T16:38:29.195Z,47.24
2023-03-06T16:39:31.010Z,47.24
2023-03-06T16:40:32.801Z,47.24
2023-03-06T16:41:34.598Z,47.34
2023-03-06T16:42:36.419Z,47.34
2023-03-06T16:43:37.165Z,47.34
2023-03-06T16:44:39.004Z,47.34
2023-03-06T16:45:40.788Z,47.34
2023-03-06T16:46:42.646Z,47.44
2023-03-06T16:47:44.493Z,47.44
2023-03-06T16:48:45.242Z,47.34
2023-03-06T16:49:47.132Z,47.44
2023-03-06T16:50:48.941Z,47.34
2023-03-06T16:51:50.734Z,47.44
2023-03-06T16:52:52.535Z,47.44
2023-03-06T16:53:53.290Z,47.44
2023-03-06T16:54:55.088Z,47.44
2023-03-06T16:55:56.897Z,47.44
2023-03-06T16:56:58.699Z,47.54
2023-03-06T16:57:59.436Z,47.54
2023-03-06T16:59:01.250Z,47.56
2023-03-06T17:00:03.109Z,47.56
2023-03-06T17:01:04.929Z,47.56
2023-03-06T17:02:06.737Z,47.66
2023-03-06T17:03:08.545Z,47.66
2023-03-06T17:04:09.301Z,47.66
2023-03-06T17:05:10.786Z,47.66
2023-03-06T17:06:12.574Z,47.66
2023-03-06T17:07:13.315Z,47.66
2023-03-06T17:08:15.133Z,47.66
2023-03-06T17:09:16.935Z,47.66
2023-03-06T17:10:18.778Z,47.77
2023-03-06T17:11:20.595Z,47.77
2023-03-06T17:12:21.346Z,47.66
2023-03-06T17:13:23.136Z,47.77
2023-03-06T17:14:24.497Z,47.77
2023-03-06T17:15:25.300Z,47.77
2023-03-06T17:16:27.086Z,47.77
2023-03-06T17:17:28.885Z,47.77
2023-03-06T17:18:30.696Z,47.77
2023-03-06T17:19:32.483Z,47.86
2023-03-06T17:20:33.288Z,47.86
2023-03-06T17:21:35.088Z,47.77
2023-03-06T17:22:37.029Z,47.77
2023-03-06T17:23:38.823Z,47.77
2023-03-06T17:24:40.631Z,47.77
2023-03-06T17:25:42.447Z,47.86
2023-03-06T17:26:43.188Z,47.86
2023-03-06T17:27:44.988Z,47.86
2023-03-06T17:28:46.794Z,47.97
2023-03-06T17:29:48.588Z,47.86
2023-03-06T17:30:50.515Z,47.86
2023-03-06T17:31:52.343Z,47.86
2023-03-06T17:32:53.076Z,47.86
2023-03-06T17:33:54.873Z,47.86
2023-03-06T17:34:56.678Z,47.86
2023-03-06T17:35:58.513Z,47.86
2023-03-06T17:37:00.431Z,47.86
2023-03-06T17:38:02.281Z,47.86
2023-03-06T17:39:03.024Z,47.86
2023-03-06T17:40:04.813Z,47.86
2023-03-06T17:41:06.665Z,47.86
2023-03-06T17:42:08.468Z,47.86
2023-03-06T17:43:10.274Z,47.97
2023-03-06T17:44:11.023Z,47.97
2023-03-06T17:45:12.825Z,47.97
2023-03-06T17:46:14.707Z,47.97
2023-03-06T17:47:16.515Z,47.97
2023-03-06T17:48:18.320Z,47.97
2023-03-06T17:49:20.117Z,47.97
2023-03-06T17:50:20.863Z,47.97
2023-03-06T17:51:22.363Z,47.97
2023-03-06T17:52:24.168Z,47.97
2023-03-06T17:53:24.914Z,48.07
2023-03-06T17:54:26.718Z,48.07
2023-03-06T17:55:28.519Z,48.07
2023-03-06T17:56:30.334Z,48.07
2023-03-06T17:57:32.155Z,48.07
2023-03-06T17:58:32.903Z,48.07
2023-03-06T17:59:34.691Z,47.97
2023-03-06T18:00:36.544Z,48.07
2023-03-06T18:01:38.465Z,48.09
2023-03-06T18:02:40.303Z,48.07
2023-03-06T18:03:42.102Z,48.09
2023-03-06T18:04:42.952Z,48.19
2023-03-06T18:05:44.756Z,48.07
2023-03-06T18:06:46.578Z,48.09
2023-03-06T18:07:48.366Z,48.19
2023-03-06T18:08:52.748Z,48.19
2023-03-06T18:09:50.572Z,48.17
2023-03-06T18:10:52.180Z,48.09
2023-03-06T18:11:54.041Z,48.19
2023-03-06T18:12:55.839Z,48.19
2023-03-06T18:13:56.540Z,48.19
2023-03-06T18:14:58.332Z,48.19
2023-03-06T18:16:00.187Z,48.19
2023-03-06T18:17:02.062Z,48.19
2023-03-06T18:18:03.873Z,48.29
2023-03-06T18:19:05.692Z,48.29
2023-03-06T18:20:06.439Z,48.29
2023-03-06T18:21:08.228Z,48.29
2023-03-06T18:22:10.056Z,48.29
2023-03-06T18:23:11.859Z,48.29
2023-03-06T18:24:13.659Z,48.29
2023-03-06T18:25:14.400Z,48.29
2023-03-06T18:26:16.198Z,48.29
2023-03-06T18:27:18.022Z,48.39
2023-03-06T18:28:19.821Z,48.39
2023-03-06T18:29:20.553Z,48.39
2023-03-06T18:30:22.340Z,48.39
2023-03-06T18:31:24.159Z,48.39
2023-03-06T18:32:26.071Z,48.39
2023-03-06T18:33:27.923Z,48.39
2023-03-06T18:34:29.719Z,48.39
2023-03-06T18:35:30.570Z,48.49
2023-03-06T18:36:31.379Z,48.49
2023-03-06T18:37:31.734Z,48.49
2023-03-06T18:38:33.596Z,48.49
2023-03-06T18:39:35.383Z,48.49
2023-03-06T18:40:35.590Z,48.49
2023-03-06T18:41:37.454Z,48.49
2023-03-06T18:42:39.267Z,48.49
2023-03-06T18:43:40.036Z,48.59
2023-03-06T18:44:41.869Z,48.59
2023-03-06T18:45:43.716Z,48.59
2023-03-06T18:46:45.738Z,48.49
2023-03-06T18:47:47.570Z,48.49
2023-03-06T18:48:49.375Z,48.59
2023-03-06T18:49:50.139Z,48.59
2023-03-06T18:50:51.929Z,48.59
2023-03-06T18:51:53.716Z,48.59
2023-03-06T18:52:55.532Z,48.59
2023-03-06T18:53:57.333Z,48.59
2023-03-06T18:54:58.085Z,48.59
2023-03-06T18:55:59.875Z,48.59
2023-03-06T18:57:01.685Z,48.49
2023-03-06T18:58:03.507Z,48.49
2023-03-06T18:59:05.310Z,48.59
2023-03-06T19:00:06.041Z,48.59
2023-03-06T19:01:07.884Z,48.59
2023-03-06T19:02:09.742Z,48.59
2023-03-06T19:03:11.576Z,48.59
2023-03-06T19:04:13.521Z,48.49
2023-03-06T19:05:15.344Z,48.59
2023-03-06T19:06:16.108Z,48.59
2023-03-06T19:07:17.921Z,48.59
2023-03-06T19:08:19.735Z,48.69
2023-03-06T19:09:21.533Z,48.69
2023-03-06T19:10:23.351Z,48.69
2023-03-06T19:11:24.082Z,48.59
2023-03-06T19:12:25.879Z,48.59
2023-03-06T19:13:27.707Z,48.49
2023-03-06T19:14:29.497Z,48.59
2023-03-06T19:15:31.289Z,48.59
2023-03-06T19:16:32.102Z,48.59
2023-03-06T19:17:32.953Z,48.59
2023-03-06T19:18:33.270Z,48.59
2023-03-06T19:19:35.051Z,48.59
2023-03-06T19:20:36.856Z,48.49
2023-03-06T19:21:37.636Z,48.49
2023-03-06T19:22:39.439Z,48.59
2023-03-06T19:23:41.261Z,48.59
2023-03-06T19:24:43.053Z,48.59
2023-03-06T19:25:44.851Z,48.69
2023-03-06T19:26:45.589Z,48.59